Weather observations for the past three days for
Bay St. Louis, Stennis International Airport
| Date | Time (cdt) | Wind (kph) | Vis. (km) | Weather | Sky Cond. | Temperature (ºC) | Relative Humidity | Wind Chill (°C) | Heat Index (°C) | Pressure | Precipitation (cm) | ||||||
|---|---|---|---|---|---|---|---|---|---|---|---|---|---|---|---|---|---|
| Air | Dwpt | 6 hour | altimeter (cm) | sea level (mb) | 1 hr | 3 hr | 6 hr | ||||||||||
| Max. | Min. | ||||||||||||||||
| 09 | 15:47 | SW 6 | 0.00 | Light Rain | SCT012 BKN060 | 20 | 19 | 94% | 75.87 | 0.0 | |||||||
| 09 | 14:47 | W 9 | 0.00 | Rain | OVC010 | 20 | 18 | 88% | 75.87 | 0.0 | |||||||
| 09 | 13:47 | SE 13 | 0.00 | Rain | OVC010 | 20 | 18 | 88% | 75.87 | 0.0 | |||||||
| 09 | 12:47 | Calm | 8.05 | Rain | OVC010 | 19 | 18 | 94% | 76 | 0.0 | |||||||
| 09 | 11:47 | SE 11 | 8.05 | Rain | OVC010 | 19 | 18 | 94% | 76.02 | 0.0 | |||||||
| 09 | 10:47 | E 11 | 8.05 | Rain | OVC010 | 19 | 18 | 94% | 76.02 | 0.0 | |||||||
| 09 | 09:47 | E 19 | 8.05 | Rain | OVC010 | 18 | 17 | 94% | 76.02 | 0.0 | |||||||
| 09 | 08:47 | NE 19 G 33 | 8.05 | Rain | OVC010 | 18 | 17 | 94% | 76.05 | 0.0 | |||||||
| 09 | 07:47 | SE 15 | 11.27 | Thunderstorm in Vicinity Light Rain | OVC020 | 22 | 21 | 94% | 75.74 | 0.0 | |||||||
| 09 | 06:47 | Calm | 16.09 | Overcast | OVC022 | 22 | 20 | 88% | 75.79 | 0.0 | |||||||
| 08 | 20:47 | S 11 | 16.09 | Mostly Cloudy | BKN050 | 20 | 19 | 94% | 75.95 | 0.0 | |||||||
| 08 | 19:47 | S 11 | 11.27 | Light Rain | BKN044 | 20 | 18 | 88% | 75.9 | 0.0 | |||||||
| 08 | 18:47 | W 11 | 11.27 | Light Rain | BKN030 | 19 | 18 | 94% | 75.95 | 0.0 | |||||||
| 08 | 17:47 | SE 15 | 11.27 | Light Rain | BKN040 | 19 | 18 | 94% | 75.9 | 0.0 | |||||||
| 08 | 16:47 | NE 19 | 3.22 | Thunderstorm Rain | OVC020 | 19 | 18 | 94% | 76.05 | 0.0 | |||||||
| 08 | 15:47 | NE 19 | 3.22 | Thunderstorm Rain | OVC005 | 19 | 18 | 94% | 76.1 | 0.0 | |||||||
| 08 | 14:47 | N 26 | 16.09 | Thunderstorm in Vicinity Light Rain | OVC013 | 19 | 18 | 94% | 76.15 | 0.0 | |||||||
| 08 | 13:50 | N 13 | 16.09 | Thunderstorm in Vicinity | OVC017 | 20 | 18 | 88% | 76.1 | 0.0 | |||||||
| 08 | 12:50 | NE 17 G 28 | 16.09 | Overcast | OVC015 | 21 | 17 | 78% | 76.1 | 0.0 | |||||||
| 08 | 11:50 | E 7 | 16.09 | Overcast | BKN015 OVC035 | 23 | 18 | 74% | 76.1 | 0.0 | |||||||
| 08 | 10:50 | E 11 | 16.09 | Thunderstorm in Vicinity | OVC015 | 21 | 17 | 78% | 76.12 | 0.0 | |||||||
| 08 | 09:50 | E 15 | 11.27 | Mostly Cloudy | BKN015 | 20 | 17 | 83% | 76.12 | 0.0 | |||||||
| 08 | 08:50 | NE 11 | 11.27 | Overcast | OVC017 | 19 | 16 | 83% | 76.15 | 0.0 | |||||||
| 08 | 07:50 | E 15 | 11.27 | Overcast | OVC020 | 19 | 16 | 83% | 76.12 | 0.0 | |||||||
| 08 | 06:50 | NE 9 | 16.09 | Overcast | OVC020 | 19 | 16 | 83% | 76.17 | 0.0 | |||||||
| 07 | 20:50 | N 9 | 16.09 | Overcast | OVC024 | 23 | 19 | 78% | 76.1 | 0.0 | |||||||
| 07 | 19:50 | N 11 | 16.09 | Overcast | OVC024 | 24 | 20 | 78% | 24 | 76.02 | 0.0 | ||||||
| 07 | 18:50 | N 15 | 16.09 | Overcast | OVC023 | 24 | 20 | 78% | 24 | 76.02 | 0.0 | ||||||
| 07 | 17:50 | N 15 | 16.09 | Overcast | OVC023 | 25 | 21 | 79% | 26 | 76.02 | 0.0 | ||||||
| 07 | 16:50 | N 9 | 16.09 | Overcast | OVC023 | 25 | 21 | 79% | 26 | 75.97 | 0.0 | ||||||
| 07 | 15:50 | N 9 | 11.27 | Overcast | OVC022 | 25 | 21 | 79% | 26 | 75.97 | 0.0 | ||||||
| 07 | 14:50 | N 9 | 11.27 | Mostly Cloudy | BKN020 | 27 | 21 | 70% | 29 | 76 | 0.0 | ||||||
| 07 | 13:50 | Calm | 11.27 | Overcast | BKN015 OVC040 | 24 | 20 | 78% | 24 | 76.07 | 0.0 | ||||||
| 07 | 12:50 | N 13 | 11.27 | Overcast | OVC012 | 24 | 20 | 78% | 24 | 76.07 | 0.0 | ||||||
| 07 | 11:50 | N 13 G 24 | 11.27 | Overcast | BKN007 OVC020 | 22 | 20 | 88% | 76.07 | 0.0 | |||||||
| 07 | 10:50 | N 15 | 8.05 | Fog/Mist | BKN007 | 21 | 20 | 94% | 76.07 | 0.0 | |||||||
| 07 | 09:50 | NW 9 G 19 | 4.83 | Fog/Mist | BKN007 | 21 | 20 | 94% | 76.07 | 0.0 | |||||||
| 07 | 08:50 | N 13 G 26 | 4.83 | Thunderstorm in Vicinity Drizzle Fog/Mist | SCT007 OVC015 | 23 | 22 | 94% | 76.02 | 0.0 | |||||||
| 07 | 07:50 | SW 9 | 11.27 | Thunderstorm in Vicinity | OVC012 | 25 | 24 | 94% | 26 | 75.97 | 0.0 | ||||||
| 07 | 06:50 | SW 9 | 11.27 | Overcast | OVC012 | 25 | 23 | 89% | 26 | 75.92 | 0.0 | ||||||
| 06 | 20:50 | S 19 | 16.09 | Mostly Cloudy | BKN012 | 25 | 24 | 94% | 26 | 75.87 | 0.0 | ||||||
| 06 | 19:47 | S 15 | 16.09 | Mostly Cloudy | SCT012 BKN040 | 25 | 24 | 94% | 26 | 75.84 | 0.0 | ||||||
| 06 | 18:47 | SE 22 | 16.09 | Mostly Cloudy | SCT020 BKN046 | 26 | 24 | 89% | 28 | 75.84 | 0.0 | ||||||
| 06 | 17:47 | SE 22 | 16.09 | Mostly Cloudy | SCT020 BKN046 | 28 | 24 | 79% | 32 | 75.84 | 0.0 | ||||||
| 06 | 16:47 | SE 22 | 16.09 | Overcast | BKN020 OVC020 | 28 | 24 | 79% | 32 | 75.9 | 0.0 | ||||||
| Date | Time (cdt) | Wind (kph) | Vis. (km) | Weather | Sky Cond. | Air | Dwpt | Max. | Min. | Relative Humidity | Wind Chill (°C) | Heat Index (°C) | altimeter (cm) | sea level (mb) | 1 hr | 3 hr | 6 hr |
| 6 hour | |||||||||||||||||
| Temperature (ºC) | Pressure | Precipitation (cm) | |||||||||||||||